createdAt,value
2019-05-10T00:00:39.498Z,20.70
2019-05-10T00:03:30.844Z,20.80
2019-05-10T00:06:21.644Z,21.00
2019-05-10T00:08:56.393Z,21.10
2019-05-10T00:11:49.120Z,21.00
2019-05-10T00:14:37.685Z,21.10
2019-05-10T00:17:12.651Z,21.10
2019-05-10T00:19:46.724Z,21.30
2019-05-10T00:22:20.676Z,21.50
2019-05-10T00:25:03.904Z,21.70
2019-05-10T00:27:29.822Z,21.70
2019-05-10T00:30:03.572Z,21.80
2019-05-10T00:32:39.930Z,21.90
2019-05-10T00:35:14.083Z,21.80
2019-05-10T00:37:48.079Z,21.80
2019-05-10T00:40:23.187Z,21.90
2019-05-10T00:42:56.832Z,22.20
2019-05-10T00:45:30.850Z,22.20
2019-05-10T00:48:04.585Z,22.40
2019-05-10T00:50:38.476Z,22.40
2019-05-10T00:53:12.167Z,22.30
2019-05-10T00:55:50.024Z,22.30
2019-05-10T00:58:23.732Z,22.40
2019-05-10T01:00:59.205Z,22.30
2019-05-10T01:03:33.524Z,22.30
2019-05-10T01:06:07.565Z,22.50
2019-05-10T01:08:44.835Z,22.70
2019-05-10T01:11:20.596Z,22.90
2019-05-10T01:13:54.686Z,23.10
2019-05-10T01:16:30.372Z,23.30
2019-05-10T01:19:04.207Z,23.50
2019-05-10T01:21:39.554Z,23.60
2019-05-10T01:24:13.146Z,23.80
2019-05-10T01:26:47.082Z,24.00
2019-05-10T01:29:20.789Z,24.10
2019-05-10T01:31:54.668Z,24.20
2019-05-10T01:34:30.873Z,24.40
2019-05-10T01:37:04.875Z,24.50
2019-05-10T01:39:39.658Z,24.30
2019-05-10T01:42:13.602Z,24.10
2019-05-10T01:44:48.702Z,23.90
2019-05-10T01:47:22.617Z,24.10
2019-05-10T01:49:56.476Z,24.30
2019-05-10T01:52:30.228Z,24.10
2019-05-10T01:55:08.949Z,24.30
2019-05-10T01:57:42.753Z,24.50
2019-05-10T02:00:17.059Z,24.70
2019-05-10T02:02:50.796Z,24.70
2019-05-10T02:05:26.762Z,24.60
2019-05-10T02:08:00.960Z,24.60
2019-05-10T02:10:35.158Z,24.60
2019-05-10T02:13:08.871Z,24.80
2019-05-10T02:15:43.536Z,25.10
2019-05-10T02:18:18.676Z,25.40
2019-05-10T02:20:54.339Z,25.40
2019-05-10T02:23:27.904Z,25.70
2019-05-10T02:26:09.535Z,25.80
2019-05-10T02:28:37.818Z,25.70
2019-05-10T02:31:14.468Z,25.70
2019-05-10T02:33:48.481Z,25.90
2019-05-10T02:36:22.442Z,26.20
2019-05-10T02:38:56.934Z,26.20
2019-05-10T02:41:40.350Z,26.20
2019-05-10T02:47:14.117Z,26.30
2019-05-10T02:49:48.185Z,26.40
2019-05-10T02:52:23.259Z,26.20
2019-05-10T02:54:59.723Z,26.20
2019-05-10T02:57:35.258Z,26.60
2019-05-10T03:00:13.263Z,26.70
2019-05-10T03:02:47.270Z,26.90
2019-05-10T03:05:22.752Z,26.80
2019-05-10T03:07:57.738Z,26.90
2019-05-10T03:10:35.040Z,26.90
2019-05-10T03:13:09.106Z,27.00
2019-05-10T03:15:47.412Z,27.20
2019-05-10T03:18:23.920Z,27.50
2019-05-10T03:20:58.824Z,27.40
2019-05-10T03:23:32.662Z,27.30
2019-05-10T03:26:10.020Z,27.00
2019-05-10T03:28:53.994Z,26.70
2019-05-10T03:31:29.368Z,26.70
2019-05-10T03:34:04.268Z,26.50
2019-05-10T03:36:42.905Z,26.50
2019-05-10T03:39:16.963Z,26.20
2019-05-10T03:41:51.969Z,26.20
2019-05-10T03:44:26.194Z,26.30
2019-05-10T03:47:00.042Z,26.40
2019-05-10T03:49:33.918Z,26.60
2019-05-10T03:52:08.157Z,26.90
2019-05-10T03:54:43.513Z,26.90
2019-05-10T03:57:17.667Z,27.00
2019-05-10T03:59:55.255Z,27.00
2019-05-10T04:02:31.290Z,27.00
2019-05-10T04:05:05.361Z,26.90
2019-05-10T04:07:42.078Z,27.10
2019-05-10T04:10:20.333Z,27.40
2019-05-10T04:12:51.596Z,27.50
2019-05-10T04:15:25.500Z,27.80
2019-05-10T04:17:59.941Z,27.70
2019-05-10T04:20:33.758Z,27.60
2019-05-10T04:23:14.011Z,27.40
2019-05-10T04:25:47.736Z,27.30
2019-05-10T04:28:21.721Z,27.30
2019-05-10T04:30:55.700Z,27.50
2019-05-10T04:33:31.356Z,27.80
2019-05-10T04:36:12.237Z,28.10
2019-05-10T04:38:54.688Z,27.90
2019-05-10T04:41:30.027Z,27.70
2019-05-10T04:44:08.205Z,27.70
2019-05-10T04:46:46.230Z,27.60
2019-05-10T04:49:25.624Z,27.80
2019-05-10T04:51:59.281Z,28.00
2019-05-10T04:54:37.808Z,27.80
2019-05-10T04:57:11.548Z,27.50
2019-05-10T04:59:48.477Z,27.70
2019-05-10T05:02:23.115Z,27.90
2019-05-10T05:04:56.910Z,27.70
2019-05-10T05:07:35.554Z,27.70
2019-05-10T05:10:11.762Z,27.40
2019-05-10T05:12:47.969Z,27.80
2019-05-10T05:15:23.202Z,27.70
2019-05-10T05:17:57.536Z,28.00
2019-05-10T05:20:35.681Z,27.90
2019-05-10T05:23:19.010Z,27.90
2019-05-10T05:25:56.122Z,27.70
2019-05-10T05:28:31.716Z,27.60
2019-05-10T05:31:06.079Z,27.60
2019-05-10T05:33:40.280Z,27.50
2019-05-10T05:36:19.270Z,27.50
2019-05-10T05:38:53.995Z,27.60
2019-05-10T05:41:31.728Z,27.60
2019-05-10T05:44:04.465Z,27.60
2019-05-10T05:46:40.078Z,27.60
2019-05-10T05:49:23.063Z,27.50
2019-05-10T05:52:03.781Z,27.40
2019-05-10T05:54:42.409Z,27.40
2019-05-10T05:57:22.177Z,27.40
2019-05-10T05:59:57.771Z,27.40
2019-05-10T06:02:32.732Z,27.40
2019-05-10T06:05:06.879Z,27.40
2019-05-10T06:07:45.418Z,27.30
2019-05-10T06:10:19.997Z,27.20
2019-05-10T06:12:53.893Z,27.10
2019-05-10T06:15:31.589Z,27.20
2019-05-10T06:18:09.780Z,27.40
2019-05-10T06:20:45.092Z,27.50
2019-05-10T06:23:20.756Z,27.50
2019-05-10T06:25:56.510Z,27.30
2019-05-10T06:28:56.822Z,27.40
2019-05-10T06:31:06.982Z,27.50
2019-05-10T06:33:46.787Z,27.70
2019-05-10T06:36:22.621Z,27.60
2019-05-10T06:38:58.434Z,27.50
2019-05-10T06:41:32.709Z,27.40
2019-05-10T06:44:06.622Z,27.30
2019-05-10T06:46:41.089Z,27.30
2019-05-10T06:49:17.513Z,27.20
2019-05-10T06:51:51.739Z,27.10
2019-05-10T06:54:27.663Z,27.20
2019-05-10T06:57:11.015Z,27.30
2019-05-10T06:59:46.016Z,27.30
2019-05-10T07:02:26.850Z,27.30
2019-05-10T07:04:56.688Z,27.20
2019-05-10T07:07:43.224Z,27.20
2019-05-10T07:10:15.700Z,27.20
2019-05-10T07:12:57.137Z,27.30
2019-05-10T07:15:30.194Z,27.40
2019-05-10T07:18:04.250Z,27.50
2019-05-10T07:20:42.782Z,27.90
2019-05-10T07:23:14.410Z,28.20
2019-05-10T07:25:50.105Z,28.10
2019-05-10T07:28:29.685Z,28.00
2019-05-10T07:31:12.786Z,27.30
2019-05-10T07:33:46.785Z,27.30
2019-05-10T07:36:27.162Z,27.00
2019-05-10T07:39:07.681Z,26.70
2019-05-10T07:41:40.849Z,26.70
2019-05-10T07:44:16.150Z,27.00
2019-05-10T07:46:54.308Z,27.10
2019-05-10T07:49:30.118Z,27.00
2019-05-10T07:52:02.270Z,27.20
2019-05-10T07:54:45.107Z,27.00
2019-05-10T07:57:18.534Z,27.00
2019-05-10T07:59:57.519Z,27.30
2019-05-10T08:02:31.433Z,27.60
2019-05-10T08:05:10.879Z,27.80
2019-05-10T08:07:42.521Z,27.80
2019-05-10T08:10:21.583Z,27.80
2019-05-10T08:12:59.502Z,27.70
2019-05-10T08:15:43.747Z,27.10
2019-05-10T08:18:25.274Z,27.00
2019-05-10T08:21:02.160Z,27.20
2019-05-10T08:23:32.846Z,27.30
2019-05-10T08:26:11.053Z,27.50
2019-05-10T08:28:52.564Z,27.50
2019-05-10T08:31:50.469Z,27.70
2019-05-10T08:34:15.613Z,27.70
2019-05-10T08:36:51.610Z,27.70
2019-05-10T08:39:25.113Z,27.70
2019-05-10T08:42:04.848Z,27.80
2019-05-10T08:44:34.190Z,27.80
2019-05-10T08:47:15.763Z,27.80
2019-05-10T08:49:59.437Z,27.80
2019-05-10T08:52:30.822Z,27.80
2019-05-10T08:55:02.786Z,27.70
2019-05-10T08:57:47.768Z,27.40
2019-05-10T09:00:37.111Z,27.50
2019-05-10T09:03:00.955Z,27.50
2019-05-10T09:05:34.067Z,27.50
2019-05-10T09:08:20.351Z,27.30
2019-05-10T09:10:52.928Z,27.50
2019-05-10T09:13:28.814Z,27.50
2019-05-10T09:16:04.044Z,27.50
2019-05-10T09:18:42.693Z,27.40
2019-05-10T09:21:14.317Z,27.30
2019-05-10T09:24:01.522Z,27.10
2019-05-10T09:26:38.245Z,27.30
2019-05-10T09:29:17.355Z,27.20
2019-05-10T09:31:56.240Z,27.10
2019-05-10T09:34:34.258Z,27.00
2019-05-10T09:37:16.073Z,26.70
2019-05-10T09:39:44.711Z,26.60
2019-05-10T09:42:26.488Z,26.60
2019-05-10T09:45:09.515Z,26.60
2019-05-10T09:47:43.355Z,26.70
2019-05-10T09:50:17.099Z,26.60
2019-05-10T09:52:52.486Z,26.50
2019-05-10T09:55:29.811Z,26.40
2019-05-10T09:58:03.612Z,26.10
2019-05-10T10:00:42.622Z,26.00
2019-05-10T10:03:18.097Z,25.90
2019-05-10T10:05:55.389Z,25.70
2019-05-10T10:08:28.548Z,25.60
2019-05-10T10:11:11.568Z,25.50
2019-05-10T10:13:44.081Z,25.40
2019-05-10T10:16:19.186Z,25.40
2019-05-10T10:18:55.215Z,25.40
2019-05-10T10:21:35.036Z,25.40
2019-05-10T10:24:14.499Z,25.10
2019-05-10T10:26:41.282Z,25.10
2019-05-10T10:29:17.250Z,25.00
2019-05-10T10:31:58.723Z,24.80
2019-05-10T10:34:32.672Z,24.80
2019-05-10T10:37:07.845Z,24.60
2019-05-10T10:39:47.677Z,24.60
2019-05-10T10:42:25.996Z,24.60
2019-05-10T10:45:02.085Z,24.50
2019-05-10T10:47:57.474Z,24.50
2019-05-10T10:50:44.488Z,24.40
2019-05-10T10:53:17.955Z,24.30
2019-05-10T10:56:03.482Z,24.10
2019-05-10T10:58:50.396Z,24.20
2019-05-10T11:01:25.515Z,24.10
2019-05-10T11:04:03.671Z,24.00
2019-05-10T11:06:34.913Z,24.00
2019-05-10T11:09:11.936Z,23.80
2019-05-10T11:11:47.048Z,23.80
2019-05-10T11:14:23.319Z,23.80
2019-05-10T11:17:01.067Z,23.70
2019-05-10T11:19:34.270Z,23.60
2019-05-10T11:22:09.679Z,23.60
2019-05-10T11:24:43.526Z,23.50
2019-05-10T11:27:21.781Z,23.50
2019-05-10T11:29:56.928Z,23.40
2019-05-10T11:32:31.471Z,23.30
2019-05-10T11:35:05.687Z,23.30
2019-05-10T11:37:42.098Z,23.20
2019-05-10T11:40:18.121Z,23.10
2019-05-10T11:42:53.102Z,23.10
2019-05-10T11:45:34.478Z,23.10
2019-05-10T11:48:10.869Z,23.10
2019-05-10T11:50:46.668Z,23.00
2019-05-10T11:53:24.017Z,22.90
2019-05-10T11:55:58.177Z,22.90
2019-05-10T11:58:37.661Z,22.70
2019-05-10T12:03:50.197Z,22.70
2019-05-10T12:06:25.846Z,22.70
2019-05-10T12:09:31.695Z,22.70
2019-05-10T12:11:56.946Z,22.70
2019-05-10T12:17:43.858Z,22.60
2019-05-10T12:20:39.129Z,22.50
2019-05-10T12:23:03.184Z,22.50
2019-05-10T12:25:51.236Z,22.40
2019-05-10T12:26:21.452Z,22.70
2019-05-10T12:28:24.459Z,22.40
2019-05-10T12:31:01.656Z,22.40
2019-05-10T12:33:37.713Z,22.40
2019-05-10T12:36:22.112Z,22.30
2019-05-10T12:38:58.383Z,22.30
2019-05-10T12:41:39.703Z,22.20
2019-05-10T12:44:13.743Z,22.20
2019-05-10T12:46:53.816Z,22.10
2019-05-10T12:49:23.784Z,22.10
2019-05-10T12:52:03.335Z,22.10
2019-05-10T12:54:37.535Z,22.10
2019-05-10T12:57:11.956Z,22.20
2019-05-10T12:59:47.222Z,22.00
2019-05-10T13:02:28.890Z,22.10
2019-05-10T13:05:17.019Z,22.10
2019-05-10T13:08:24.382Z,22.30
2019-05-10T13:11:08.938Z,22.20
2019-05-10T13:14:55.043Z,22.10
2019-05-10T13:17:54.897Z,22.10
2019-05-10T13:23:28.010Z,22.00
2019-05-10T13:26:07.862Z,21.90
2019-05-10T13:28:50.425Z,21.90
2019-05-10T13:31:27.973Z,22.10
2019-05-10T13:34:04.620Z,22.00
2019-05-10T13:36:43.824Z,22.10
2019-05-10T13:39:19.059Z,22.00
2019-05-10T13:41:57.131Z,22.00
2019-05-10T13:44:29.546Z,21.90
2019-05-10T13:47:05.912Z,21.90
2019-05-10T13:49:41.229Z,21.80
2019-05-10T13:52:16.286Z,21.80
2019-05-10T13:54:52.966Z,21.80
2019-05-10T13:57:28.839Z,21.70
2019-05-10T14:00:03.270Z,21.70
2019-05-10T14:02:37.276Z,21.60
2019-05-10T14:05:17.488Z,21.70
2019-05-10T14:07:54.372Z,21.70
2019-05-10T14:10:28.872Z,21.70
2019-05-10T14:13:11.139Z,21.60
2019-05-10T14:15:55.563Z,21.60
2019-05-10T14:18:34.184Z,21.60
2019-05-10T14:21:09.584Z,21.60
2019-05-10T14:23:52.348Z,21.50
2019-05-10T14:26:31.536Z,21.50
2019-05-10T14:29:11.058Z,21.50
2019-05-10T14:31:47.366Z,21.50
2019-05-10T14:34:24.121Z,21.50
2019-05-10T14:36:59.230Z,21.40
2019-05-10T14:39:38.125Z,21.40
2019-05-10T14:42:24.147Z,21.40
2019-05-10T14:44:59.270Z,21.40
2019-05-10T14:47:46.273Z,21.40
2019-05-10T14:50:25.896Z,21.40
2019-05-10T14:53:07.484Z,21.40
2019-05-10T14:56:20.247Z,21.40
2019-05-10T15:05:42.330Z,21.10
2019-05-10T15:08:51.729Z,21.10
2019-05-10T15:11:34.638Z,21.20
2019-05-10T15:14:10.665Z,21.10
2019-05-10T15:16:57.582Z,21.10
2019-05-10T15:19:55.877Z,21.10
2019-05-10T15:22:48.733Z,21.10
2019-05-10T15:28:21.047Z,21.10
2019-05-10T15:30:56.242Z,21.20
2019-05-10T15:33:34.793Z,21.00
2019-05-10T15:36:12.765Z,21.00
2019-05-10T15:38:52.443Z,21.00
2019-05-10T15:41:29.578Z,20.90
2019-05-10T15:44:05.615Z,20.90
2019-05-10T15:46:42.917Z,21.00
2019-05-10T15:49:24.553Z,20.80
2019-05-10T15:52:17.514Z,20.80
2019-05-10T15:54:47.288Z,20.80
2019-05-10T15:57:37.423Z,20.80
2019-05-10T16:00:25.475Z,20.90
2019-05-10T16:06:01.128Z,20.90
2019-05-10T16:08:42.271Z,20.80
2019-05-10T16:11:20.770Z,20.80
2019-05-10T16:14:01.714Z,20.80
2019-05-10T16:19:27.311Z,20.80
2019-05-10T16:22:09.442Z,20.70
2019-05-10T16:24:48.420Z,20.60
2019-05-10T16:27:24.000Z,20.70
2019-05-10T16:30:18.298Z,20.70
2019-05-10T16:33:02.358Z,20.50
2019-05-10T16:35:44.224Z,20.60
2019-05-10T16:38:21.868Z,20.60
2019-05-10T16:41:00.232Z,20.60
2019-05-10T16:43:31.618Z,20.40
2019-05-10T16:46:17.018Z,20.50
2019-05-10T16:48:52.528Z,20.50
2019-05-10T16:51:27.443Z,20.50
2019-05-10T16:54:24.370Z,20.40
2019-05-10T16:57:01.102Z,20.40
2019-05-10T16:59:48.464Z,20.40
2019-05-10T17:02:23.962Z,20.40
2019-05-10T17:05:09.861Z,20.50
2019-05-10T17:07:53.805Z,20.50
2019-05-10T17:10:32.718Z,20.40
2019-05-10T17:13:12.200Z,20.50
2019-05-10T17:15:55.988Z,20.50
2019-05-10T17:18:29.454Z,20.40
2019-05-10T17:21:03.435Z,20.40
2019-05-10T17:23:41.587Z,20.20
2019-05-10T17:26:13.897Z,20.30
2019-05-10T17:28:52.084Z,20.30
2019-05-10T17:31:26.221Z,20.30
2019-05-10T17:34:00.280Z,20.40
2019-05-10T17:36:38.902Z,20.30
2019-05-10T17:39:12.957Z,20.30
2019-05-10T17:41:48.457Z,20.20
2019-05-10T17:44:25.071Z,20.10
2019-05-10T17:47:01.221Z,20.10
2019-05-10T17:49:39.451Z,20.10
2019-05-10T17:52:15.492Z,19.90
2019-05-10T17:54:50.546Z,19.90
2019-05-10T17:57:27.745Z,20.10
2019-05-10T18:00:01.069Z,20.10
2019-05-10T18:02:35.041Z,20.10
2019-05-10T18:05:09.145Z,20.10
2019-05-10T18:07:44.826Z,20.00
2019-05-10T18:10:18.703Z,20.00
2019-05-10T18:13:02.948Z,19.90
2019-05-10T18:15:32.998Z,20.00
2019-05-10T18:18:07.793Z,19.90
2019-05-10T18:20:44.508Z,20.00
2019-05-10T18:23:21.483Z,19.90
2019-05-10T18:25:58.497Z,20.00
2019-05-10T18:28:28.994Z,20.10
2019-05-10T18:31:04.391Z,19.90
2019-05-10T18:33:48.237Z,19.90
2019-05-10T18:36:16.342Z,19.80
2019-05-10T18:38:52.066Z,19.70
2019-05-10T18:41:27.769Z,19.70
2019-05-10T18:44:05.664Z,19.70
2019-05-10T18:46:41.865Z,19.70
2019-05-10T18:49:17.538Z,19.70
2019-05-10T18:51:51.552Z,19.70
2019-05-10T18:54:25.272Z,19.70
2019-05-10T18:57:04.574Z,19.70
2019-05-10T18:59:39.778Z,19.70
2019-05-10T19:02:11.896Z,19.70
2019-05-10T19:04:51.961Z,19.60
2019-05-10T19:07:26.227Z,19.50
2019-05-10T19:09:59.915Z,19.60
2019-05-10T19:12:35.394Z,19.60
2019-05-10T19:15:15.100Z,19.50
2019-05-10T19:17:45.897Z,19.50
2019-05-10T19:20:20.174Z,19.50
2019-05-10T19:22:54.148Z,19.60
2019-05-10T19:25:29.467Z,19.60
2019-05-10T19:28:03.542Z,19.40
2019-05-10T19:30:39.000Z,19.40
2019-05-10T19:33:14.373Z,19.40
2019-05-10T19:35:48.584Z,19.30
2019-05-10T19:38:22.329Z,19.30
2019-05-10T19:40:56.389Z,19.30
2019-05-10T19:43:30.284Z,19.20
2019-05-10T19:46:05.759Z,19.20
2019-05-10T19:48:39.580Z,19.20
2019-05-10T19:51:13.959Z,19.30
2019-05-10T19:53:48.008Z,19.20
2019-05-10T19:56:21.905Z,19.00
2019-05-10T19:58:56.885Z,19.10
2019-05-10T20:01:30.619Z,19.10
2019-05-10T20:04:04.466Z,19.10
2019-05-10T20:06:38.211Z,19.10
2019-05-10T20:09:12.064Z,19.00
2019-05-10T20:11:45.800Z,19.00
2019-05-10T20:14:19.882Z,18.90
2019-05-10T20:16:53.947Z,19.10
2019-05-10T20:19:29.248Z,19.10
2019-05-10T20:22:03.703Z,19.10
2019-05-10T20:24:37.873Z,19.10
2019-05-10T20:27:11.913Z,19.10
2019-05-10T20:29:45.859Z,18.90
2019-05-10T20:32:21.090Z,18.90
2019-05-10T20:34:54.973Z,18.90
2019-05-10T20:37:28.791Z,18.90
2019-05-10T20:40:04.291Z,18.70
2019-05-10T20:42:39.846Z,18.70
2019-05-10T20:45:14.023Z,18.70
2019-05-10T20:47:48.167Z,18.70
2019-05-10T20:50:23.149Z,18.70
2019-05-10T20:52:56.959Z,18.80
2019-05-10T20:55:32.818Z,18.80
2019-05-10T20:58:06.708Z,18.70
2019-05-10T21:00:40.975Z,18.60
2019-05-10T21:03:15.342Z,18.70
2019-05-10T21:05:49.346Z,18.70
2019-05-10T21:08:25.142Z,18.70
2019-05-10T21:10:59.065Z,18.70
2019-05-10T21:13:32.918Z,18.60
2019-05-10T21:16:08.409Z,18.60
2019-05-10T21:18:42.231Z,18.60
2019-05-10T21:21:16.174Z,18.60
2019-05-10T21:23:50.973Z,18.60
2019-05-10T21:26:25.406Z,18.60
2019-05-10T21:28:59.124Z,18.50
2019-05-10T21:31:34.763Z,18.60
2019-05-10T21:34:10.020Z,18.60
2019-05-10T21:36:43.521Z,18.60
2019-05-10T21:39:18.776Z,18.60
2019-05-10T21:41:52.848Z,18.60
2019-05-10T21:44:26.653Z,18.50
2019-05-10T21:47:00.508Z,18.50
2019-05-10T21:49:34.278Z,18.70
2019-05-10T21:52:08.182Z,18.70
2019-05-10T21:54:42.218Z,18.70
2019-05-10T21:57:16.317Z,18.70
2019-05-10T21:59:50.770Z,18.60
2019-05-10T22:02:24.360Z,18.70
2019-05-10T22:04:58.797Z,18.70
2019-05-10T22:07:32.562Z,18.70
2019-05-10T22:10:07.437Z,18.80
2019-05-10T22:12:41.188Z,18.90
2019-05-10T22:15:16.308Z,18.90
2019-05-10T22:17:50.263Z,19.00
2019-05-10T22:20:24.284Z,18.90
2019-05-10T22:22:58.130Z,18.70
2019-05-10T22:25:32.164Z,18.60
2019-05-10T22:28:06.003Z,18.70
2019-05-10T22:30:41.958Z,18.80
2019-05-10T22:33:18.580Z,18.90
2019-05-10T22:35:52.799Z,18.90
2019-05-10T22:38:28.437Z,19.00
2019-05-10T22:41:02.608Z,19.10
2019-05-10T22:43:36.302Z,19.20
2019-05-10T22:46:10.199Z,19.30
2019-05-10T22:48:44.066Z,19.40
2019-05-10T22:51:17.927Z,19.60
2019-05-10T22:53:59.459Z,19.60
2019-05-10T22:56:27.214Z,19.80
2019-05-10T22:59:01.028Z,19.90
2019-05-10T23:01:35.026Z,19.90
2019-05-10T23:04:09.813Z,19.80
2019-05-10T23:06:44.452Z,19.90
2019-05-10T23:09:24.476Z,20.00
2019-05-10T23:11:55.303Z,20.10
2019-05-10T23:14:29.219Z,20.30
2019-05-10T23:17:03.435Z,20.40
2019-05-10T23:19:37.241Z,20.50
2019-05-10T23:22:11.512Z,20.60
2019-05-10T23:24:48.173Z,20.70
2019-05-10T23:27:22.790Z,20.90
2019-05-10T23:29:56.609Z,20.80
2019-05-10T23:32:32.321Z,20.80
2019-05-10T23:35:06.247Z,21.00
2019-05-10T23:37:40.559Z,21.00
2019-05-10T23:40:14.910Z,21.20
2019-05-10T23:42:49.037Z,21.20
2019-05-10T23:45:22.814Z,21.40
2019-05-10T23:47:56.750Z,21.50
2019-05-10T23:50:30.482Z,21.40
2019-05-10T23:53:05.767Z,21.60
2019-05-10T23:55:41.327Z,21.70
2019-05-10T23:58:16.885Z,21.80
